Anson, Texas
Current Conditions -  °F | °C
As of 12:58 PM on Saturday 25 Oct 2014 (Local Time) from KDYS Reporting Station
Clear Clear  
Wind Chill: 86°   Ceiling: Unl
Heat Index: 86°   Visibility: 10mi
Dew Point: 54°   Wind: 12mph
Humidity: 33%   Direction: 180°S
Pressure: 30.14"   Gusts: NA
Location:  32.76°N, 99.9°W
Report Text: KDYS 251758Z AUTO 18010KT 10SM CLR 30/12 A3014 RMK AO2 SLP167 T03010120 10301 20182 58009 $
Loading
Personal Weather Stations






























Interactive Weather Map
Tropical Storm Tracking
New forecast layout! Learn more

10-Day Weather Forecast

Advertisements
Track Severe Weather on mobile